createdAt,value
2019-05-28T00:01:05.205Z,97.1
2019-05-28T00:02:06.619Z,97.1
2019-05-28T00:03:08.080Z,97.1
2019-05-28T00:04:09.471Z,97
2019-05-28T00:05:10.921Z,97.1
2019-05-28T00:06:12.334Z,97.1
2019-05-28T00:07:13.747Z,97.1
2019-05-28T00:10:16.901Z,97.1
2019-05-28T00:11:18.341Z,97.1
2019-05-28T00:12:19.763Z,97.1
2019-05-28T00:13:21.188Z,97.2
2019-05-28T00:14:22.597Z,97.1
2019-05-28T00:16:25.162Z,97.1
2019-05-28T00:21:30.533Z,97.2
2019-05-28T00:26:36.505Z,97.4
2019-05-28T00:27:37.916Z,97.4
2019-05-28T00:28:39.337Z,97.4
2019-05-28T00:29:40.143Z,97.4
2019-05-28T00:30:41.581Z,97.4
2019-05-28T00:31:42.998Z,97.4
2019-05-28T00:35:47.885Z,97.3
2019-05-28T00:36:49.306Z,97.3
2019-05-28T00:37:50.721Z,97.1
2019-05-28T00:39:52.698Z,97.1
2019-05-28T00:42:56.382Z,97.4
2019-05-28T00:43:57.837Z,97.3
2019-05-28T00:44:59.246Z,97.3
2019-05-28T00:46:00.659Z,97.2
2019-05-28T00:47:02.079Z,97.3
2019-05-28T00:48:03.497Z,97.3
2019-05-28T00:51:06.583Z,97.4
2019-05-28T00:56:12.567Z,97.3
2019-05-28T01:00:16.817Z,97
2019-05-28T01:02:18.754Z,97.1
2019-05-28T01:06:23.614Z,97
2019-05-28T01:09:27.308Z,96.9
2019-05-28T01:10:28.130Z,96.9
2019-05-28T01:11:29.543Z,96.9
2019-05-28T01:12:30.969Z,97
2019-05-28T01:13:32.379Z,96.9
2019-05-28T01:14:33.797Z,96.8
2019-05-28T01:16:36.371Z,96.9
2019-05-28T01:20:40.613Z,96.9
2019-05-28T01:24:45.445Z,97
2019-05-28T01:26:48.016Z,97.1
2019-05-28T01:27:49.435Z,97.3
2019-05-28T01:28:50.858Z,97.1
2019-05-28T01:29:52.268Z,97.2
2019-05-28T01:31:00.964Z,97.1
2019-05-28T01:37:00.190Z,97
2019-05-28T01:39:02.756Z,97.2
2019-05-28T01:40:04.166Z,97.1
2019-05-28T01:41:04.981Z,97.2
2019-05-28T01:42:06.405Z,97.2
2019-05-28T01:43:07.818Z,97.3
2019-05-28T01:46:11.582Z,97.4
2019-05-28T01:47:13.007Z,97.3
2019-05-28T01:48:14.457Z,97.3
2019-05-28T01:49:15.890Z,97.3
2019-05-28T01:50:17.329Z,97.3
2019-05-28T01:51:18.172Z,97.4
2019-05-28T01:52:19.624Z,97.4
2019-05-28T01:53:21.023Z,97.4
2019-05-28T01:54:22.476Z,97.4
2019-05-28T01:55:23.893Z,97.4
2019-05-28T01:57:26.466Z,97.4
2019-05-28T01:59:29.022Z,97.3
2019-05-28T02:01:31.362Z,97.3
2019-05-28T02:07:38.531Z,97.2
2019-05-28T02:08:39.947Z,97.2
2019-05-28T02:11:43.046Z,97.3
2019-05-28T02:15:47.874Z,97.2
2019-05-28T02:16:49.336Z,97.2
2019-05-28T02:20:54.168Z,97.2
2019-05-28T02:21:55.003Z,97.2
2019-05-28T02:27:00.996Z,97.3
2019-05-28T02:28:02.433Z,97.2
2019-05-28T02:31:06.312Z,97.3
2019-05-28T02:32:07.352Z,97.2
2019-05-28T02:33:08.771Z,97.2
2019-05-28T02:34:10.199Z,97
2019-05-28T02:35:11.606Z,97.1
2019-05-28T02:36:13.020Z,97
2019-05-28T02:38:15.606Z,96.9
2019-05-28T02:39:17.070Z,97
2019-05-28T02:40:18.485Z,97
2019-05-28T02:43:21.584Z,96.9
2019-05-28T02:47:26.410Z,96.9
2019-05-28T02:48:27.873Z,96.9
2019-05-28T02:49:29.298Z,96.9
2019-05-28T02:50:30.719Z,96.8
2019-05-28T02:51:32.128Z,96.8
2019-05-28T02:52:32.961Z,96.8
2019-05-28T02:53:34.375Z,96.8
2019-05-28T02:54:35.794Z,96.8
2019-05-28T02:58:40.653Z,96.9
2019-05-28T03:00:43.232Z,96.9
2019-05-28T03:03:46.325Z,96.9
2019-05-28T03:06:50.021Z,97.1
2019-05-28T03:08:52.613Z,97.1
2019-05-28T03:09:54.033Z,97.1
2019-05-28T03:11:55.990Z,97
2019-05-28T03:13:57.961Z,97
2019-05-28T03:19:03.942Z,97
2019-05-28T03:22:07.641Z,97
2019-05-28T03:23:08.465Z,97
2019-05-28T03:24:09.879Z,97
2019-05-28T03:25:11.329Z,96.9
2019-05-28T03:26:12.752Z,97
2019-05-28T03:27:14.165Z,97
2019-05-28T03:28:15.624Z,97
2019-05-28T03:29:17.047Z,97.2
2019-05-28T03:30:18.459Z,97.1
2019-05-28T03:34:22.709Z,97.2
2019-05-28T03:35:24.117Z,97.2
2019-05-28T03:36:25.533Z,97.2
2019-05-28T03:37:26.957Z,97.2
2019-05-28T03:38:28.404Z,97.2
2019-05-28T03:39:29.826Z,97.2
2019-05-28T03:40:31.245Z,97.2
2019-05-28T03:42:36.346Z,97.2
2019-05-28T03:43:34.188Z,97.2
2019-05-28T03:44:35.583Z,97.3
2019-05-28T03:45:37.035Z,97.2
2019-05-28T03:46:38.461Z,97.2
2019-05-28T03:47:39.879Z,97.2
2019-05-28T03:49:42.465Z,97.3
2019-05-28T03:53:46.731Z,97.4
2019-05-28T03:54:48.151Z,97.5
2019-05-28T03:55:49.559Z,97.5
2019-05-28T03:56:50.981Z,97.5
2019-05-28T03:57:52.395Z,97.4
2019-05-28T03:58:53.847Z,97.5
2019-05-28T03:59:58.167Z,97.6
2019-05-28T04:00:56.632Z,97.6
2019-05-28T04:01:58.050Z,97.7
2019-05-28T04:02:59.514Z,97.7
2019-05-28T04:04:00.349Z,97.7
2019-05-28T04:05:01.841Z,97.6
2019-05-28T04:09:06.809Z,97.5
2019-05-28T04:10:08.233Z,97.6
2019-05-28T04:11:09.647Z,97.6
2019-05-28T04:14:12.774Z,97.7
2019-05-28T04:15:14.240Z,98
2019-05-28T04:16:15.655Z,97.6
2019-05-28T04:17:17.074Z,97.5
2019-05-28T04:20:20.779Z,97.6
2019-05-28T04:25:26.148Z,97.5
2019-05-28T04:28:29.963Z,97.5
2019-05-28T04:30:32.602Z,97.6
2019-05-28T04:32:41.503Z,97.6
2019-05-28T04:35:37.583Z,97.5
2019-05-28T04:39:42.587Z,97.5
2019-05-28T04:40:44.045Z,97.5
2019-05-28T04:41:48.557Z,97.4
2019-05-28T04:42:46.930Z,97.4
2019-05-28T04:43:51.261Z,97.5
2019-05-28T04:44:49.053Z,97.5
2019-05-28T04:45:50.499Z,97.4
2019-05-28T04:46:51.930Z,97.4
2019-05-28T04:47:52.633Z,97.3
2019-05-28T04:50:56.380Z,97.1
2019-05-28T04:51:57.802Z,97.1
2019-05-28T04:54:00.343Z,97
2019-05-28T04:56:02.325Z,96.9
2019-05-28T04:58:04.888Z,97
2019-05-28T05:00:07.502Z,97.1
2019-05-28T05:01:08.910Z,97.3
2019-05-28T05:06:14.283Z,97.2
2019-05-28T05:07:15.715Z,97
2019-05-28T05:11:20.578Z,97.1
2019-05-28T05:12:22.005Z,97
2019-05-28T05:14:24.572Z,97.2
2019-05-28T05:16:26.457Z,97
2019-05-28T05:17:27.867Z,96.9
2019-05-28T05:21:35.920Z,97.1
2019-05-28T05:22:33.337Z,96.8
2019-05-28T05:25:36.433Z,97.1
2019-05-28T05:26:37.865Z,96.9
2019-05-28T05:27:39.286Z,96.8
2019-05-28T05:28:40.702Z,96.8
2019-05-28T05:29:42.115Z,96.7
2019-05-28T05:30:43.562Z,96.6
2019-05-28T05:31:44.980Z,96.6
2019-05-28T05:35:49.292Z,96.8
2019-05-28T05:36:50.708Z,96.6
2019-05-28T05:37:52.135Z,96.6
2019-05-28T05:38:53.566Z,96.6
2019-05-28T05:39:54.989Z,96.7
2019-05-28T05:40:56.435Z,96.6
2019-05-28T05:41:57.875Z,96.7
2019-05-28T05:42:59.270Z,96.6
2019-05-28T05:44:00.695Z,96.8
2019-05-28T05:45:02.171Z,96.7
2019-05-28T05:47:03.634Z,96.8
2019-05-28T05:50:07.368Z,96.8
2019-05-28T05:51:08.817Z,96.7
2019-05-28T05:52:10.246Z,96.7
2019-05-28T05:53:11.659Z,96.7
2019-05-28T05:57:15.906Z,96.9
2019-05-28T05:58:17.326Z,96.7
2019-05-28T05:59:18.743Z,96.9
2019-05-28T06:00:20.165Z,96.9
2019-05-28T06:01:21.614Z,97.1
2019-05-28T06:02:23.042Z,97.1
2019-05-28T06:03:41.872Z,96.8
2019-05-28T06:04:25.407Z,96.9
2019-05-28T06:05:26.820Z,96.7
2019-05-28T06:07:28.790Z,96.9
2019-05-28T06:08:30.242Z,97
2019-05-28T06:09:31.495Z,97.1
2019-05-28T06:10:32.917Z,97
2019-05-28T06:11:34.366Z,97
2019-05-28T06:12:35.789Z,97.1
2019-05-28T06:13:37.206Z,97
2019-05-28T06:15:39.794Z,96.9
2019-05-28T06:17:41.749Z,96.9
2019-05-28T06:21:46.611Z,97.1
2019-05-28T06:22:48.035Z,97
2019-05-28T06:23:49.444Z,96.9
2019-05-28T06:24:50.852Z,96.7
2019-05-28T06:25:52.348Z,96.8
2019-05-28T06:26:53.164Z,96.6
2019-05-28T06:27:54.588Z,96.9
2019-05-28T06:28:56.013Z,97
2019-05-28T06:29:57.455Z,96.7
2019-05-28T06:30:58.877Z,96.8
2019-05-28T06:32:00.321Z,96.7
2019-05-28T06:33:01.736Z,97
2019-05-28T06:38:07.087Z,97
2019-05-28T06:39:08.543Z,97
2019-05-28T06:40:09.969Z,97
2019-05-28T06:43:13.679Z,97.1
2019-05-28T06:44:15.121Z,97.1
2019-05-28T06:46:17.670Z,97.1
2019-05-28T06:47:18.489Z,97.3
2019-05-28T06:48:19.906Z,97
2019-05-28T06:49:21.318Z,97.2
2019-05-28T06:51:23.871Z,97.3
2019-05-28T06:52:25.310Z,97.3
2019-05-28T06:53:26.726Z,97.3
2019-05-28T06:54:28.143Z,97.2
2019-05-28T06:55:29.558Z,97.4
2019-05-28T06:56:30.984Z,97.5
2019-05-28T06:57:31.270Z,96.9
2019-05-28T06:58:40.477Z,97.3
2019-05-28T06:59:33.906Z,97.3
2019-05-28T07:00:35.317Z,97.3
2019-05-28T07:02:37.906Z,97.1
2019-05-28T07:03:39.324Z,97
2019-05-28T07:04:40.750Z,97.2
2019-05-28T07:05:42.160Z,97.2
2019-05-28T07:06:43.468Z,97.1
2019-05-28T07:07:44.321Z,97.2
2019-05-28T07:08:45.728Z,97.1
2019-05-28T07:11:48.978Z,97.3
2019-05-28T07:12:50.459Z,97.1
2019-05-28T07:17:59.851Z,97.1
2019-05-28T07:18:57.250Z,97.4
2019-05-28T07:19:58.677Z,97
2019-05-28T07:21:00.102Z,96.9
2019-05-28T07:22:01.548Z,97.1
2019-05-28T07:23:02.961Z,96.8
2019-05-28T07:24:05.356Z,96.9
2019-05-28T07:25:05.754Z,96.9
2019-05-28T07:27:08.338Z,96.9
2019-05-28T07:28:12.159Z,96.6
2019-05-28T07:29:10.569Z,96.7
2019-05-28T07:31:13.134Z,96.9
2019-05-28T07:34:31.530Z,96.3
2019-05-28T07:35:17.920Z,96.3
2019-05-28T07:36:19.338Z,96.4
2019-05-28T07:37:20.769Z,96.6
2019-05-28T07:38:21.577Z,96.1
2019-05-28T07:41:25.425Z,96.4
2019-05-28T17:38:44.140Z,96.6
2019-05-28T17:39:45.567Z,93.5
2019-05-28T17:40:49.169Z,93.9
2019-05-28T17:43:49.872Z,92.8
2019-05-28T17:44:50.695Z,93.8
2019-05-28T17:46:53.257Z,93.8
2019-05-28T17:48:55.840Z,94.1
2019-05-28T17:51:59.531Z,93.9
2019-05-28T17:53:00.978Z,94.1
2019-05-28T17:55:03.253Z,94
2019-05-28T17:56:08.221Z,94.1
2019-05-28T17:57:04.626Z,93.7
2019-05-28T17:58:06.089Z,93.6
2019-05-28T17:59:07.521Z,93.8
2019-05-28T18:00:08.941Z,94.1
2019-05-28T18:03:12.663Z,94.5
2019-05-28T18:04:14.099Z,94.1
2019-05-28T18:05:14.927Z,94.5
2019-05-28T18:06:16.345Z,94.8
2019-05-28T18:09:20.058Z,94.2
2019-05-28T18:13:28.700Z,94.2
2019-05-28T18:14:26.086Z,94.2
2019-05-28T18:15:26.874Z,94.3
2019-05-28T18:16:28.292Z,94.3
2019-05-28T18:24:37.788Z,94.5
2019-05-28T18:31:45.425Z,94.5
2019-05-28T18:32:46.852Z,94.4
2019-05-28T18:34:49.421Z,94.3
2019-05-28T18:38:53.485Z,94.1
2019-05-28T18:39:54.949Z,94.5
2019-05-28T18:40:56.361Z,94.3
2019-05-28T18:41:57.779Z,94.6
2019-05-28T18:45:01.575Z,94.9
2019-05-28T18:46:02.362Z,94.9
2019-05-28T18:47:03.779Z,94.7
2019-05-28T18:48:05.214Z,94.9
2019-05-28T18:49:06.633Z,94.9
2019-05-28T18:50:08.082Z,95
2019-05-28T18:55:14.080Z,95.3
2019-05-28T18:56:18.433Z,95.3
2019-05-28T18:57:15.831Z,95.4
2019-05-28T18:58:17.803Z,95
2019-05-28T18:59:18.772Z,95
2019-05-28T19:00:19.332Z,95.3
2019-05-28T19:02:21.889Z,95.3
2019-05-28T19:05:25.614Z,95.6
2019-05-28T19:06:26.516Z,95.5
2019-05-28T19:07:27.933Z,95.6
2019-05-28T19:08:29.356Z,95.7
2019-05-28T19:09:30.763Z,95.5
2019-05-28T19:10:32.224Z,95.4
2019-05-28T19:11:38.484Z,95.4
2019-05-28T19:12:35.126Z,95.6
2019-05-28T19:13:36.569Z,95.5
2019-05-28T19:14:38.009Z,95.4
2019-05-28T19:15:39.516Z,95.2
2019-05-28T19:18:42.582Z,95.3
2019-05-28T19:20:45.169Z,95.3
2019-05-28T19:24:50.008Z,95.3
2019-05-28T19:25:50.651Z,95.4
2019-05-28T19:26:51.455Z,95.4
2019-05-28T19:27:52.894Z,95.5
2019-05-28T19:28:54.314Z,95.7
2019-05-28T19:29:55.733Z,95.5
2019-05-28T19:37:03.664Z,95.4
2019-05-28T19:38:05.070Z,95.4
2019-05-28T19:40:07.604Z,95.4
2019-05-28T19:43:11.280Z,95
2019-05-28T19:44:12.684Z,94.8
2019-05-28T19:46:15.231Z,95.1
2019-05-28T19:47:16.587Z,95.1
2019-05-28T19:55:24.912Z,95
2019-05-28T19:56:26.310Z,94.6
2019-05-28T20:00:30.487Z,94.8
2019-05-28T20:02:33.015Z,94.9
2019-05-28T20:03:34.405Z,94.8
2019-05-28T20:04:35.804Z,94.6
2019-05-28T20:05:37.233Z,94.4
2019-05-28T20:06:38.627Z,94.5
2019-05-28T20:08:40.517Z,94.3
2019-05-28T20:11:43.857Z,94.4
2019-05-28T20:12:45.246Z,94.2
2019-05-28T20:15:48.904Z,94.7
2019-05-28T20:16:51.349Z,94.8
2019-05-28T20:17:50.936Z,94.8
2019-05-28T20:18:51.975Z,94.8
2019-05-28T20:19:57.358Z,94.7
2019-05-28T20:20:55.987Z,94.8
2019-05-28T20:21:57.055Z,94.9
2019-05-28T20:22:57.739Z,95
2019-05-28T20:23:59.154Z,94.9
2019-05-28T20:25:00.552Z,95
2019-05-28T20:26:01.977Z,95
2019-05-28T20:27:03.372Z,94.8
2019-05-28T20:28:04.133Z,94.7
2019-05-28T20:29:09.184Z,94.8
2019-05-28T20:30:07.355Z,94.7
2019-05-28T20:31:10.339Z,94.9
2019-05-28T20:32:09.560Z,94.8
2019-05-28T20:35:12.191Z,94.8
2019-05-28T20:36:13.617Z,95.1
2019-05-28T20:44:21.789Z,94.9
2019-05-28T20:45:23.190Z,94.9
2019-05-28T20:48:26.575Z,94.8
2019-05-28T20:49:27.968Z,94.9
2019-05-28T20:50:29.360Z,94.8
2019-05-28T20:53:36.555Z,95
2019-05-28T20:54:33.907Z,95
2019-05-28T20:57:37.590Z,95.2
2019-05-28T20:58:40.869Z,95.2
2019-05-28T21:02:42.747Z,95.1
2019-05-28T21:03:44.145Z,94.9
2019-05-28T21:04:44.907Z,95.1
2019-05-28T21:10:52.817Z,95.3
2019-05-28T21:11:53.084Z,95.3
2019-05-28T21:19:00.242Z,95.5
2019-05-28T21:20:01.767Z,95.3
2019-05-28T21:21:03.161Z,95.4
2019-05-28T21:23:05.758Z,95.3
2019-05-28T21:25:08.283Z,95.1
2019-05-28T21:26:13.139Z,95.1
2019-05-28T21:27:10.499Z,95.2
2019-05-28T21:29:12.159Z,95.3
2019-05-28T21:35:19.379Z,95.8
2019-05-28T21:36:20.841Z,95.6
2019-05-28T21:37:22.226Z,95.6
2019-05-28T21:39:24.409Z,95.5
2019-05-28T21:41:26.951Z,95.5
2019-05-28T21:42:28.350Z,95.1
2019-05-28T21:43:29.745Z,95.2
2019-05-28T21:44:31.015Z,95.3
2019-05-28T21:47:34.685Z,95.5
2019-05-28T21:48:36.089Z,95.4
2019-05-28T21:49:36.765Z,95.5
2019-05-28T21:50:40.998Z,95.5
2019-05-28T21:51:38.355Z,95.3
2019-05-28T21:52:39.773Z,95.4
2019-05-28T21:56:44.589Z,95.7
2019-05-28T21:57:46.034Z,95.5
2019-05-28T21:58:47.415Z,95.7
2019-05-28T21:59:50.560Z,95.6
2019-05-28T22:03:52.697Z,95.4
2019-05-28T22:04:55.353Z,95.6
2019-05-28T22:05:55.381Z,95.5
2019-05-28T22:06:57.421Z,95.5
2019-05-28T22:07:57.925Z,95.7
2019-05-28T22:08:59.923Z,95.8
2019-05-28T22:10:00.255Z,95.7
2019-05-28T22:12:05.064Z,95.2
2019-05-28T22:13:22.385Z,95.3
2019-05-28T22:14:04.425Z,95.5
2019-05-28T22:15:04.805Z,95.7
2019-05-28T22:16:06.209Z,95.3
2019-05-28T22:17:13.338Z,95.5
2019-05-28T22:18:08.710Z,95.6
2019-05-28T22:19:10.100Z,95.2
2019-05-28T22:20:10.866Z,95.2
2019-05-28T22:21:12.263Z,95.6
2019-05-28T22:22:13.672Z,95.8
2019-05-28T22:24:16.196Z,95.6
2019-05-28T22:25:17.592Z,95.7
2019-05-28T22:27:20.148Z,95.6
2019-05-28T22:28:21.547Z,95.4
2019-05-28T22:30:23.673Z,95.1
2019-05-28T22:37:31.897Z,95.6
2019-05-28T22:38:33.286Z,95.7
2019-05-28T22:46:41.971Z,95.6
2019-05-28T22:47:43.408Z,95.8
2019-05-28T22:48:44.801Z,95.7
2019-05-28T22:50:46.700Z,95.5
2019-05-28T22:51:48.097Z,95.8
2019-05-28T22:52:49.512Z,95.8
2019-05-28T22:53:50.908Z,95.6
2019-05-28T22:54:52.308Z,95.6
2019-05-28T22:55:52.928Z,95.6
2019-05-28T22:56:54.322Z,95.5
2019-05-28T22:57:55.344Z,95.5
2019-05-28T22:58:56.732Z,95.5
2019-05-28T23:00:58.658Z,95.3
2019-05-28T23:02:01.069Z,95.3
2019-05-28T23:03:01.214Z,95.2
2019-05-28T23:06:05.532Z,95.6
2019-05-28T23:07:05.920Z,95.5
2019-05-28T23:08:07.944Z,95.6
2019-05-28T23:09:08.348Z,95.6
2019-05-28T23:10:10.057Z,95.6
2019-05-28T23:11:10.820Z,95.8
2019-05-28T23:12:12.213Z,95.7
2019-05-28T23:18:19.306Z,95.7
2019-05-28T23:19:20.701Z,95.6
2019-05-28T23:20:22.093Z,95.7
2019-05-28T23:21:22.620Z,95.7
2019-05-28T23:23:25.174Z,95.7
2019-05-28T23:24:26.570Z,95.8
2019-05-28T23:25:27.972Z,95.6
2019-05-28T23:26:29.379Z,95.7
2019-05-28T23:27:30.772Z,95.7
2019-05-28T23:31:35.110Z,95.5
2019-05-28T23:34:38.782Z,95.5
2019-05-28T23:35:40.171Z,95.5
2019-05-28T23:37:42.698Z,95.5
2019-05-28T23:38:44.312Z,95.3
2019-05-28T23:39:44.700Z,95.5
2019-05-28T23:40:46.102Z,95.5
2019-05-28T23:41:46.862Z,95.5
2019-05-28T23:42:48.260Z,95.4
2019-05-28T23:48:55.649Z,95.5
2019-05-28T23:49:57.062Z,95.5
2019-05-28T23:50:58.460Z,95.5
2019-05-28T23:51:58.889Z,95.7
2019-05-28T23:53:00.128Z,95.8
2019-05-28T23:54:00.868Z,95.7
2019-05-28T23:55:02.290Z,95.6
2019-05-28T23:56:02.965Z,95.8
2019-05-28T23:57:04.364Z,95.8
2019-05-28T23:58:05.928Z,95.8
2019-05-28T23:59:06.112Z,95.7
